Time;durP1;ratioP1;P1;durP2;ratioP2;P2;SDS_P1;SDS_P2;PMS_P1;PMS_P2;Temp;Humidity;BMP_temperature;BMP_pressure;BME280_temperature;BME280_humidity;BME280_pressure;Samples;Min_cycle;Max_cycle;Signal;HPM_P1;HPM_P2
2024/03/03 00:00:13;;;;;;;27.77;17.15;;;24.20;54.80;;;;;;6085982;28;83755;-61
2024/03/03 00:03:13;;;;;;;22.85;14.10;;;24.10;54.70;;;;;;6076971;28;84213;-61
2024/03/03 00:06:14;;;;;;;22.05;15.10;;;24.20;54.80;;;;;;6088341;28;84573;-62
2024/03/03 00:09:14;;;;;;;24.23;15.45;;;24.20;54.70;;;;;;6091305;28;83738;-61
2024/03/03 00:12:15;;;;;;;23.63;15.02;;;24.20;54.40;;;;;;6096392;28;83185;-62
2024/03/03 00:15:15;;;;;;;26.05;17.00;;;24.20;54.50;;;;;;6089547;28;87458;-61
2024/03/03 00:18:16;;;;;;;21.65;14.18;;;24.20;54.40;;;;;;6090322;28;84361;-62
2024/03/03 00:21:16;;;;;;;21.33;13.52;;;24.20;54.50;;;;;;6091941;28;83430;-61
2024/03/03 00:24:17;;;;;;;24.80;14.70;;;24.20;54.30;;;;;;6088606;28;84512;-62
2024/03/03 00:27:17;;;;;;;22.70;14.95;;;24.20;54.40;;;;;;6100958;28;83430;-63
2024/03/03 00:30:18;;;;;;;29.35;18.27;;;24.20;54.10;;;;;;6101171;28;83445;-63
2024/03/03 00:33:18;;;;;;;28.25;17.48;;;24.10;53.90;;;;;;6102115;28;84519;-62
2024/03/03 00:36:19;;;;;;;24.27;17.40;;;24.10;54.00;;;;;;6101309;28;83891;-60
2024/03/03 00:39:20;;;;;;;24.73;15.65;;;24.10;54.00;;;;;;6088336;28;83229;-62
2024/03/03 00:42:20;;;;;;;26.67;16.60;;;24.10;54.00;;;;;;6101481;28;83421;-62
2024/03/03 00:45:21;;;;;;;29.30;17.25;;;24.10;54.20;;;;;;6102026;28;83758;-63
2024/03/03 00:48:21;;;;;;;26.63;17.75;;;24.10;53.90;;;;;;6101892;28;85104;-63
2024/03/03 00:51:22;;;;;;;25.00;17.65;;;24.10;53.90;;;;;;6102234;28;83333;-63
2024/03/03 00:54:22;;;;;;;28.20;17.67;;;24.10;53.90;;;;;;6099305;28;85963;-61
2024/03/03 00:57:23;;;;;;;26.60;17.60;;;24.10;53.80;;;;;;6099986;28;83163;-64
2024/03/03 01:00:23;;;;;;;22.73;15.23;;;24.10;53.70;;;;;;6099476;28;85770;-62
2024/03/03 01:03:25;;;;;;;23.35;14.00;;;24.10;53.90;;;;;;6101987;28;84001;-63
2024/03/03 01:06:25;;;;;;;30.33;18.77;;;24.10;53.80;;;;;;6101317;28;83033;-63
2024/03/03 01:09:26;;;;;;;24.13;17.00;;;24.10;53.70;;;;;;6099242;28;85314;-63
2024/03/03 01:12:26;;;;;;;26.23;17.27;;;24.10;53.60;;;;;;6092165;28;83380;-63
2024/03/03 01:15:27;;;;;;;20.67;14.20;;;24.10;53.70;;;;;;6102637;28;83189;-62
2024/03/03 01:18:29;;;;;;;26.13;17.52;;;24.10;53.70;;;;;;6100158;28;84409;-60
2024/03/03 01:21:30;;;;;;;24.13;16.80;;;24.10;53.60;;;;;;6098932;28;83475;-62
2024/03/03 01:24:31;;;;;;;26.73;18.13;;;24.10;53.40;;;;;;6090540;28;83144;-62
2024/03/03 01:27:32;;;;;;;27.83;18.25;;;24.10;53.30;;;;;;6102062;28;83399;-61
2024/03/03 01:30:33;;;;;;;25.50;16.70;;;24.10;53.50;;;;;;6098874;28;85990;-62
2024/03/03 01:33:33;;;;;;;26.55;17.05;;;24.10;53.40;;;;;;6103121;28;86292;-62
2024/03/03 01:36:34;;;;;;;23.48;14.77;;;24.10;53.30;;;;;;6101556;28;83940;-62
2024/03/03 01:39:36;;;;;;;27.63;18.40;;;24.10;53.40;;;;;;6101398;28;82850;-61
2024/03/03 01:42:36;;;;;;;25.35;17.52;;;24.10;53.20;;;;;;6101011;28;83042;-62
2024/03/03 01:45:37;;;;;;;28.45;19.67;;;24.10;53.30;;;;;;6100352;28;85206;-63
2024/03/03 01:48:37;;;;;;;29.45;20.20;;;24.10;53.30;;;;;;6102569;28;83103;-62
2024/03/03 01:51:38;;;;;;;17.45;13.10;;;24.10;53.10;;;;;;6101328;28;83116;-62
2024/03/03 01:54:38;;;;;;;29.00;19.00;;;24.10;53.50;;;;;;6093113;28;83873;-62
2024/03/03 01:57:39;;;;;;;28.52;18.65;;;24.10;53.10;;;;;;6077245;28;83285;-62
2024/03/03 02:00:39;;;;;;;29.23;18.25;;;24.10;53.20;;;;;;6084451;28;86210;-62
2024/03/03 02:03:40;;;;;;;25.65;17.58;;;24.10;52.90;;;;;;6091403;28;82755;-64
2024/03/03 02:06:40;;;;;;;28.05;18.75;;;24.10;53.00;;;;;;6077205;28;86269;-61
2024/03/03 02:09:41;;;;;;;31.10;19.92;;;24.00;52.90;;;;;;6077208;28;85014;-61
2024/03/03 02:12:45;;;;;;;26.20;18.73;;;24.10;52.80;;;;;;6081800;28;82827;-61
2024/03/03 02:15:46;;;;;;;26.77;18.52;;;24.00;52.70;;;;;;6077223;28;84482;-61
2024/03/03 02:18:47;;;;;;;26.50;16.70;;;24.10;52.60;;;;;;6078108;28;84404;-61
2024/03/03 02:21:47;;;;;;;29.83;20.05;;;24.00;52.80;;;;;;6076828;28;83744;-61
2024/03/03 02:24:48;;;;;;;26.35;18.08;;;24.00;52.60;;;;;;6090119;28;85918;-62
2024/03/03 02:27:48;;;;;;;27.10;18.00;;;24.00;52.80;;;;;;6086058;28;85455;-61
2024/03/03 02:30:49;;;;;;;29.67;19.25;;;24.00;52.70;;;;;;6083474;28;83302;-62
2024/03/03 02:33:50;;;;;;;32.03;20.08;;;24.10;52.60;;;;;;6077650;28;83403;-61
2024/03/03 02:36:50;;;;;;;28.65;18.75;;;24.10;52.20;;;;;;6076033;28;84901;-61
2024/03/03 02:39:51;;;;;;;27.67;18.42;;;24.00;52.40;;;;;;6090355;28;84698;-61
2024/03/03 02:42:52;;;;;;;24.58;17.00;;;24.00;52.40;;;;;;6075383;28;84398;-61
2024/03/03 02:45:52;;;;;;;29.42;19.05;;;24.00;52.40;;;;;;6084973;28;84295;-62
2024/03/03 02:48:53;;;;;;;24.77;16.52;;;24.00;52.30;;;;;;6099637;28;85186;-63
2024/03/03 02:51:54;;;;;;;33.72;19.80;;;24.00;52.30;;;;;;6100526;28;83247;-62
2024/03/03 02:54:55;;;;;;;30.00;18.60;;;24.00;52.10;;;;;;6099518;28;83520;-62
2024/03/03 02:57:55;;;;;;;28.65;18.23;;;24.00;52.40;;;;;;6098042;28;82767;-62
2024/03/03 03:00:56;;;;;;;22.13;15.88;;;24.00;52.30;;;;;;6099915;28;86339;-62
2024/03/03 03:03:57;;;;;;;29.13;19.92;;;24.00;52.20;;;;;;6098316;28;83236;-63
2024/03/03 03:06:57;;;;;;;25.98;18.20;;;24.00;52.10;;;;;;6097452;28;85986;-63
2024/03/03 03:09:58;;;;;;;24.40;17.50;;;24.00;52.20;;;;;;6074846;28;83102;-63
2024/03/03 03:12:58;;;;;;;29.67;17.08;;;24.00;52.30;;;;;;6085679;28;83568;-63
2024/03/03 03:15:59;;;;;;;22.38;14.07;;;24.00;52.40;;;;;;6098736;28;83504;-63
2024/03/03 03:19:00;;;;;;;26.33;17.52;;;24.00;52.60;;;;;;6088545;28;83003;-64
2024/03/03 03:22:01;;;;;;;23.92;16.15;;;24.00;52.40;;;;;;6080592;28;86254;-62
2024/03/03 03:25:01;;;;;;;30.20;18.33;;;24.00;53.10;;;;;;6093034;28;82808;-62
2024/03/03 03:28:02;;;;;;;25.17;16.67;;;24.00;52.20;;;;;;6092773;28;84693;-62
2024/03/03 03:31:03;;;;;;;28.63;18.50;;;24.00;52.20;;;;;;6093508;28;83054;-62
2024/03/03 03:34:03;;;;;;;24.75;17.63;;;24.00;51.90;;;;;;6102327;28;84200;-63
2024/03/03 03:37:04;;;;;;;25.88;17.40;;;24.00;51.90;;;;;;6102787;28;83028;-62
2024/03/03 03:40:04;;;;;;;26.70;17.42;;;24.00;52.20;;;;;;6102320;28;86034;-62
2024/03/03 03:43:05;;;;;;;23.05;16.27;;;24.00;52.00;;;;;;6091324;28;85873;-61
2024/03/03 03:46:06;;;;;;;25.98;17.00;;;24.00;52.10;;;;;;6085829;28;86285;-63
2024/03/03 03:49:07;;;;;;;20.08;14.15;;;24.00;52.30;;;;;;6103120;28;84121;-63
2024/03/03 03:52:07;;;;;;;23.85;16.45;;;24.00;52.60;;;;;;6102766;28;84123;-63
2024/03/03 03:55:08;;;;;;;21.15;14.57;;;24.00;52.40;;;;;;6102102;28;83271;-65
2024/03/03 03:58:08;;;;;;;22.17;15.57;;;24.00;52.10;;;;;;6098398;28;83226;-63
2024/03/03 04:01:09;;;;;;;26.25;18.25;;;24.00;52.00;;;;;;6091769;28;83099;-63
2024/03/03 04:04:10;;;;;;;23.85;15.27;;;24.00;51.90;;;;;;6104266;28;83756;-63
2024/03/03 04:07:10;;;;;;;23.08;14.93;;;24.00;52.00;;;;;;6094359;28;83353;-63
2024/03/03 04:10:13;;;;;;;26.05;15.32;;;24.00;51.90;;;;;;6099749;28;83112;-64
2024/03/03 04:13:13;;;;;;;24.95;16.13;;;24.00;51.80;;;;;;6100984;28;83985;-63
2024/03/03 04:16:14;;;;;;;26.60;17.60;;;24.00;52.00;;;;;;6102853;28;82974;-63
2024/03/03 04:19:14;;;;;;;21.67;14.63;;;24.00;51.80;;;;;;6089541;28;83557;-63
2024/03/03 04:22:15;;;;;;;24.17;15.63;;;23.90;51.90;;;;;;6079779;28;83155;-63
2024/03/03 04:25:16;;;;;;;25.40;16.52;;;24.00;51.60;;;;;;6079998;28;83145;-62
2024/03/03 04:28:16;;;;;;;25.50;16.50;;;24.00;51.80;;;;;;6078944;28;86591;-62
2024/03/03 04:31:16;;;;;;;25.98;17.42;;;24.00;51.50;;;;;;6080438;28;83703;-64
2024/03/03 04:34:17;;;;;;;26.27;17.30;;;24.00;51.50;;;;;;6079601;28;84009;-64
2024/03/03 04:37:17;;;;;;;25.05;16.15;;;24.00;51.70;;;;;;6079475;28;83042;-63
2024/03/03 04:40:18;;;;;;;25.25;17.52;;;24.00;51.00;;;;;;6079306;28;84690;-63
2024/03/03 04:43:18;;;;;;;27.67;16.15;;;24.00;51.00;;;;;;6079422;28;83529;-62
2024/03/03 04:46:19;;;;;;;22.85;15.75;;;24.10;50.80;;;;;;6090803;28;83041;-62
2024/03/03 04:49:20;;;;;;;22.27;15.77;;;24.10;50.90;;;;;;6101197;28;83465;-65
2024/03/03 04:52:20;;;;;;;21.98;15.68;;;24.10;50.80;;;;;;6101630;28;83610;-65
2024/03/03 04:55:21;;;;;;;22.30;15.85;;;24.10;50.80;;;;;;6096765;28;83109;-65
2024/03/03 04:58:21;;;;;;;24.45;15.35;;;24.10;50.80;;;;;;6101403;28;83049;-65
2024/03/03 05:01:22;;;;;;;21.90;14.85;;;24.20;50.80;;;;;;6100324;28;83462;-65
2024/03/03 05:04:22;;;;;;;23.42;15.35;;;24.20;50.80;;;;;;6100508;28;84050;-64
2024/03/03 05:07:23;;;;;;;20.42;14.60;;;24.20;50.70;;;;;;6090681;28;83415;-65
2024/03/03 05:10:23;;;;;;;21.52;14.32;;;24.30;50.60;;;;;;6100023;28;83120;-65
2024/03/03 05:13:24;;;;;;;22.50;14.88;;;24.30;50.60;;;;;;6100746;28;84111;-64
2024/03/03 05:16:25;;;;;;;21.98;14.40;;;24.30;50.70;;;;;;6098834;28;84157;-65
2024/03/03 05:19:25;;;;;;;24.30;14.98;;;24.30;50.60;;;;;;6101155;28;83151;-64
2024/03/03 05:22:26;;;;;;;21.63;15.13;;;24.30;50.50;;;;;;6099670;28;85583;-64
2024/03/03 05:25:26;;;;;;;19.52;14.00;;;24.30;50.50;;;;;;6102157;28;83829;-67
2024/03/03 05:28:27;;;;;;;20.92;14.85;;;24.30;50.50;;;;;;6099611;28;83292;-67
2024/03/03 05:31:27;;;;;;;20.45;13.90;;;24.30;50.30;;;;;;6101227;28;83806;-67
2024/03/03 05:34:29;;;;;;;23.75;16.02;;;24.30;50.40;;;;;;6100313;28;83857;-68
2024/03/03 05:37:30;;;;;;;20.90;14.60;;;24.30;50.10;;;;;;6098236;28;86197;-67
2024/03/03 05:40:30;;;;;;;23.23;14.95;;;24.30;50.20;;;;;;6099763;28;83000;-68
2024/03/03 05:43:31;;;;;;;20.77;14.82;;;24.40;50.60;;;;;;6097636;28;83503;-65
2024/03/03 05:46:32;;;;;;;21.50;14.90;;;24.40;50.40;;;;;;6099663;28;84024;-67
2024/03/03 05:49:33;;;;;;;20.58;15.18;;;24.40;50.20;;;;;;6101210;28;83378;-66
2024/03/03 05:52:34;;;;;;;23.20;15.18;;;24.30;50.20;;;;;;6089629;28;83279;-66
2024/03/03 05:55:36;;;;;;;22.60;14.20;;;24.30;50.10;;;;;;6099275;28;83173;-65
2024/03/03 05:58:36;;;;;;;22.77;14.90;;;24.30;50.50;;;;;;6100137;28;85638;-66
2024/03/03 06:01:37;;;;;;;21.35;13.18;;;24.30;50.50;;;;;;6095303;28;83343;-65
2024/03/03 06:04:37;;;;;;;22.42;14.82;;;24.30;50.70;;;;;;6097187;28;83179;-68
2024/03/03 06:07:38;;;;;;;23.27;14.40;;;24.30;50.60;;;;;;6092905;28;83546;-66
2024/03/03 06:10:38;;;;;;;21.45;13.98;;;24.30;50.50;;;;;;6101022;28;83169;-59
2024/03/03 06:13:39;;;;;;;21.73;13.48;;;24.30;50.60;;;;;;6097764;28;86141;-59
2024/03/03 06:16:39;;;;;;;26.02;15.45;;;24.30;50.60;;;;;;6095077;28;83075;-60
2024/03/03 06:19:40;;;;;;;20.80;14.30;;;24.30;50.30;;;;;;6097677;28;84645;-57
2024/03/03 06:22:40;;;;;;;22.70;15.82;;;24.30;49.70;;;;;;6081968;28;83852;-66
2024/03/03 06:25:41;;;;;;;19.48;13.50;;;24.20;49.50;;;;;;6080701;28;83446;-63
2024/03/03 06:28:45;;;;;;;24.20;14.60;;;24.30;50.40;;;;;;6089059;28;84893;-65
2024/03/03 06:31:46;;;;;;;23.45;17.08;;;24.20;50.60;;;;;;6091816;28;84133;-66
2024/03/03 06:34:48;;;;;;;24.00;15.57;;;24.20;49.70;;;;;;6092005;28;83866;-63
2024/03/03 06:37:50;;;;;;;22.90;15.63;;;24.20;49.90;;;;;;6098879;28;83483;-65
2024/03/03 06:40:51;;;;;;;24.35;15.55;;;24.10;49.90;;;;;;6098041;28;83314;-66
2024/03/03 06:43:52;;;;;;;25.73;16.27;;;24.20;50.10;;;;;;6090671;28;87991;-61
2024/03/03 06:46:52;;;;;;;23.92;15.88;;;24.10;50.20;;;;;;6076988;28;83759;-62
2024/03/03 06:49:54;;;;;;;25.98;15.30;;;24.20;50.70;;;;;;6086779;28;83109;-63
2024/03/03 06:52:55;;;;;;;22.20;15.25;;;24.20;50.80;;;;;;6097228;28;83243;-63
2024/03/03 06:55:55;;;;;;;26.23;15.25;;;24.20;50.70;;;;;;6103099;28;83680;-63
2024/03/03 06:58:56;;;;;;;21.77;14.02;;;24.20;51.00;;;;;;6100968;28;84633;-63
2024/03/03 07:01:56;;;;;;;23.15;14.95;;;24.30;51.20;;;;;;6096345;28;83510;-63
2024/03/03 07:04:57;;;;;;;19.00;13.60;;;24.30;51.30;;;;;;6100930;28;83140;-63
2024/03/03 07:07:57;;;;;;;19.27;13.18;;;24.30;51.90;;;;;;6100889;28;83500;-62
2024/03/03 07:10:58;;;;;;;20.70;13.90;;;24.40;52.40;;;;;;6092121;28;83118;-61
2024/03/03 07:13:59;;;;;;;20.50;13.90;;;24.40;52.10;;;;;;6104459;28;84249;-63
2024/03/03 07:16:59;;;;;;;29.90;17.98;;;24.40;52.40;;;;;;6093589;28;83854;-63
2024/03/03 07:20:02;;;;;;;27.08;16.02;;;24.40;52.40;;;;;;6095944;28;86231;-62
2024/03/03 07:23:03;;;;;;;26.58;17.00;;;24.40;52.70;;;;;;6097427;28;83245;-62
2024/03/03 07:26:03;;;;;;;30.60;17.02;;;24.50;53.00;;;;;;6097314;28;84638;-62
2024/03/03 07:29:04;;;;;;;26.75;17.65;;;24.50;53.10;;;;;;6091599;28;86439;-61
2024/03/03 07:32:04;;;;;;;32.13;16.58;;;24.50;53.10;;;;;;6101065;28;87578;-62
2024/03/03 07:35:05;;;;;;;25.48;17.05;;;24.50;53.50;;;;;;6093704;28;82899;-60
2024/03/03 07:38:05;;;;;;;30.75;16.58;;;24.50;53.50;;;;;;6090903;28;83039;-62
2024/03/03 07:41:06;;;;;;;28.48;15.68;;;24.60;53.60;;;;;;6092835;28;84064;-62
2024/03/03 07:44:06;;;;;;;21.77;14.77;;;24.60;53.50;;;;;;6092671;28;88416;-62
2024/03/03 07:47:07;;;;;;;24.27;15.75;;;24.60;53.60;;;;;;6099797;28;83783;-62
2024/03/03 07:50:07;;;;;;;25.42;15.30;;;24.60;53.30;;;;;;6102322;28;83966;-63
2024/03/03 07:53:09;;;;;;;25.90;14.10;;;24.70;53.40;;;;;;6102349;28;83056;-62
2024/03/03 07:56:09;;;;;;;21.42;14.20;;;24.70;53.30;;;;;;6099205;28;83217;-61
2024/03/03 07:59:10;;;;;;;18.25;12.45;;;24.70;52.90;;;;;;6099531;28;86139;-61
2024/03/03 08:02:10;;;;;;;21.10;13.27;;;24.70;52.80;;;;;;6097087;28;83303;-57
2024/03/03 08:05:11;;;;;;;18.35;12.63;;;24.70;52.90;;;;;;6093606;28;84796;-63
2024/03/03 08:08:11;;;;;;;20.75;11.27;;;24.70;52.70;;;;;;6090429;28;82755;-62
2024/03/03 08:11:12;;;;;;;14.82;10.85;;;24.80;52.80;;;;;;6098289;28;83250;-62
2024/03/03 08:14:12;;;;;;;16.48;11.82;;;24.80;52.70;;;;;;6099889;28;83998;-62
2024/03/03 08:17:13;;;;;;;16.50;10.75;;;24.90;52.70;;;;;;6086165;28;85826;-62
2024/03/03 08:20:14;;;;;;;14.98;9.63;;;24.90;52.70;;;;;;6086398;28;82738;-61
2024/03/03 08:23:15;;;;;;;15.43;10.55;;;24.90;52.50;;;;;;6103809;28;81835;-60
2024/03/03 08:26:16;;;;;;;20.38;11.38;;;24.90;52.30;;;;;;6098256;28;83359;-61
2024/03/03 08:29:17;;;;;;;25.45;16.52;;;24.90;51.50;;;;;;6097019;28;82736;-61
2024/03/03 08:32:18;;;;;;;27.98;16.90;;;24.80;49.00;;;;;;6099428;28;82995;-55
2024/03/03 08:35:19;;;;;;;23.88;16.85;;;24.70;47.80;;;;;;6093554;28;83791;-63
2024/03/03 08:38:19;;;;;;;29.40;18.92;;;24.70;47.10;;;;;;6100573;28;83473;-60
2024/03/03 08:41:20;;;;;;;29.17;17.85;;;24.60;46.50;;;;;;6095425;28;83761;-59
2024/03/03 08:44:20;;;;;;;30.00;18.75;;;24.50;46.30;;;;;;6101212;28;82854;-60
2024/03/03 08:47:21;;;;;;;24.58;17.73;;;24.50;46.20;;;;;;6100777;28;84269;-61
2024/03/03 08:50:21;;;;;;;29.65;18.95;;;24.50;46.70;;;;;;6101237;28;84051;-63
2024/03/03 08:53:22;;;;;;;26.50;17.45;;;24.50;46.40;;;;;;6084556;28;84549;-61
2024/03/03 08:56:22;;;;;;;24.90;18.33;;;24.50;47.30;;;;;;6099710;28;83159;-63
2024/03/03 08:59:23;;;;;;;25.45;17.38;;;24.50;46.50;;;;;;6099207;28;84776;-63
2024/03/03 09:02:23;;;;;;;25.80;17.10;;;24.50;46.40;;;;;;6100653;28;83958;-64
2024/03/03 09:05:24;;;;;;;24.77;16.58;;;24.50;47.30;;;;;;6091976;28;83166;-63
2024/03/03 09:08:25;;;;;;;22.50;15.45;;;24.50;46.90;;;;;;6093698;28;84289;-62
2024/03/03 09:11:27;;;;;;;23.38;15.63;;;24.50;46.80;;;;;;6101592;28;83001;-63
2024/03/03 09:14:27;;;;;;;23.58;15.13;;;24.60;46.60;;;;;;6099257;28;82923;-63
2024/03/03 09:17:28;;;;;;;25.25;16.27;;;24.60;46.50;;;;;;6080944;28;88360;-63
2024/03/03 09:20:29;;;;;;;22.00;15.32;;;24.70;46.50;;;;;;6093004;28;83009;-64
2024/03/03 09:23:29;;;;;;;22.95;14.23;;;24.70;46.40;;;;;;6091323;28;83679;-64
2024/03/03 09:26:30;;;;;;;23.08;14.88;;;24.70;46.10;;;;;;6099078;28;83985;-64
2024/03/03 09:29:30;;;;;;;20.48;13.25;;;24.70;45.90;;;;;;6103734;28;82861;-62
2024/03/03 09:32:31;;;;;;;23.85;13.45;;;24.70;46.10;;;;;;6101097;28;83306;-63
2024/03/03 09:35:31;;;;;;;21.27;12.88;;;24.70;46.00;;;;;;6097475;28;83687;-62
2024/03/03 09:38:32;;;;;;;24.35;13.38;;;24.70;46.30;;;;;;6085740;28;83085;-62
2024/03/03 09:41:33;;;;;;;22.35;13.52;;;24.70;46.00;;;;;;6103147;28;84237;-61
2024/03/03 09:44:33;;;;;;;16.48;12.30;;;24.70;46.30;;;;;;6100821;28;84766;-61
2024/03/03 09:47:34;;;;;;;19.38;11.23;;;24.80;46.30;;;;;;6091195;28;83642;-60
2024/03/03 09:50:34;;;;;;;16.10;9.85;;;24.80;46.80;;;;;;6092091;28;83240;-60
2024/03/03 09:53:35;;;;;;;16.00;10.32;;;24.90;47.70;;;;;;6104427;28;83478;-60
2024/03/03 09:56:38;;;;;;;16.05;10.07;;;24.80;45.70;;;;;;6100572;28;82838;-59
2024/03/03 09:59:39;;;;;;;13.95;9.13;;;24.80;45.60;;;;;;6101366;28;83474;-60
2024/03/03 10:02:39;;;;;;;11.82;8.40;;;24.80;45.00;;;;;;6092576;28;83979;-60
2024/03/03 10:05:40;;;;;;;14.05;9.32;;;24.90;44.90;;;;;;6093693;28;80742;-61
2024/03/03 10:08:40;;;;;;;13.60;8.95;;;25.00;46.00;;;;;;6092195;28;80762;-60
2024/03/03 10:11:41;;;;;;;11.15;8.07;;;25.00;45.50;;;;;;6088526;28;80550;-61
2024/03/03 10:14:41;;;;;;;12.40;8.27;;;25.10;46.20;;;;;;6091430;28;80679;-61
2024/03/03 10:17:42;;;;;;;11.85;8.05;;;25.10;45.70;;;;;;6088044;28;80529;-60
2024/03/03 10:20:43;;;;;;;14.00;9.05;;;25.20;45.80;;;;;;6093882;28;80932;-60
2024/03/03 10:23:43;;;;;;;13.70;9.57;;;25.30;45.40;;;;;;6105589;28;80928;-59
2024/03/03 10:26:43;;;;;;;14.90;10.38;;;25.30;45.00;;;;;;6105043;28;81575;-59
2024/03/03 10:29:44;;;;;;;12.85;9.00;;;25.30;44.80;;;;;;6100545;28;83488;-59
2024/03/03 10:32:45;;;;;;;11.93;8.27;;;25.30;44.30;;;;;;6093210;28;85937;-60
2024/03/03 10:35:45;;;;;;;13.88;8.80;;;25.40;44.50;;;;;;6097544;28;80256;-60
2024/03/03 10:38:46;;;;;;;11.40;7.60;;;25.40;44.10;;;;;;6100280;28;80264;-61
2024/03/03 10:41:46;;;;;;;12.50;7.22;;;25.40;44.00;;;;;;6091702;28;84361;-60
2024/03/03 10:44:47;;;;;;;13.77;7.95;;;25.50;43.90;;;;;;6092299;28;81731;-61
2024/03/03 10:47:47;;;;;;;10.15;7.07;;;25.50;43.80;;;;;;6091010;28;81060;-59
2024/03/03 10:50:48;;;;;;;12.57;7.72;;;25.50;44.00;;;;;;6101566;28;80435;-61
2024/03/03 10:53:48;;;;;;;12.07;7.60;;;25.60;43.70;;;;;;6102224;28;80342;-60
2024/03/03 10:56:49;;;;;;;10.70;7.00;;;25.60;43.80;;;;;;6102862;28;81135;-60
2024/03/03 10:59:49;;;;;;;12.68;8.15;;;25.60;43.40;;;;;;6103301;28;81121;-60
2024/03/03 11:02:50;;;;;;;10.75;7.75;;;25.60;43.50;;;;;;6105015;28;80233;-60
2024/03/03 11:05:51;;;;;;;13.45;8.13;;;25.70;43.40;;;;;;6106207;28;80949;-61
2024/03/03 11:08:52;;;;;;;14.43;8.38;;;25.70;43.30;;;;;;6094362;28;80672;-60
2024/03/03 11:11:52;;;;;;;13.75;9.00;;;25.70;43.40;;;;;;6091039;28;81615;-60
2024/03/03 11:14:53;;;;;;;12.70;8.02;;;25.80;43.70;;;;;;6096258;28;80520;-60
2024/03/03 11:17:54;;;;;;;13.05;8.30;;;25.80;43.90;;;;;;6083915;28;80566;-60
2024/03/03 11:20:54;;;;;;;11.18;7.80;;;25.80;43.90;;;;;;6103143;28;81511;-60
2024/03/03 11:23:55;;;;;;;11.95;7.90;;;25.80;43.40;;;;;;6094190;28;80928;-60
2024/03/03 11:26:55;;;;;;;13.15;9.00;;;25.90;43.50;;;;;;6102847;28;81709;-60
2024/03/03 11:29:56;;;;;;;15.88;8.85;;;25.90;43.10;;;;;;6095441;28;81409;-61
2024/03/03 11:32:56;;;;;;;9.52;7.20;;;25.80;43.50;;;;;;6096300;28;80920;-60
2024/03/03 11:35:57;;;;;;;14.70;8.35;;;25.80;43.00;;;;;;6096117;28;81529;-60
2024/03/03 11:38:58;;;;;;;10.95;7.50;;;25.80;43.30;;;;;;6103733;28;81381;-60
2024/03/03 11:41:59;;;;;;;14.15;8.85;;;25.80;42.80;;;;;;6099207;28;81303;-59
2024/03/03 11:44:59;;;;;;;14.00;8.20;;;25.80;43.00;;;;;;6099304;28;80813;-60
2024/03/03 11:48:00;;;;;;;10.80;6.93;;;25.80;43.10;;;;;;6106707;28;80459;-60
2024/03/03 11:51:00;;;;;;;12.23;7.47;;;25.80;42.70;;;;;;6092948;28;80617;-61
2024/03/03 11:54:01;;;;;;;11.60;7.45;;;25.80;42.20;;;;;;6105969;28;80552;-60
2024/03/03 11:57:02;;;;;;;9.85;7.45;;;25.80;42.30;;;;;;6100917;28;80326;-60
2024/03/03 12:00:12;;;;;;;10.25;7.68;;;25.80;43.30;;;;;;6105685;28;80925;-59
2024/03/03 12:03:13;;;;;;;10.00;7.28;;;25.80;42.80;;;;;;6101210;28;80904;-60
2024/03/03 12:06:13;;;;;;;9.40;6.82;;;25.50;41.00;;;;;;6104718;28;81068;-60
2024/03/03 12:09:17;;;;;;;10.65;7.75;;;25.60;42.90;;;;;;6105576;28;81464;-60
2024/03/03 12:12:17;;;;;;;8.00;6.13;;;25.60;43.20;;;;;;6085578;28;80871;-60
2024/03/03 12:15:18;;;;;;;10.18;7.53;;;25.50;43.30;;;;;;6086062;28;80571;-60
2024/03/03 12:18:18;;;;;;;13.50;7.32;;;25.50;42.90;;;;;;6090067;28;80580;-60
2024/03/03 12:21:23;;;;;;;10.50;7.22;;;25.60;42.90;;;;;;6105545;28;81510;-60
2024/03/03 12:24:23;;;;;;;8.40;6.70;;;25.50;42.30;;;;;;6101391;28;80676;-59
2024/03/03 12:27:24;;;;;;;9.63;6.68;;;25.50;42.60;;;;;;6105844;28;81698;-60
2024/03/03 12:30:24;;;;;;;11.30;6.95;;;25.50;42.40;;;;;;6102324;28;80286;-60
2024/03/03 12:33:25;;;;;;;8.52;6.80;;;25.50;42.20;;;;;;6091085;28;82021;-60
2024/03/03 12:36:26;;;;;;;10.38;6.32;;;25.50;42.60;;;;;;6087237;28;81878;-60
2024/03/03 12:39:27;;;;;;;9.63;6.13;;;25.50;42.00;;;;;;6090368;28;81490;-59
2024/03/03 12:42:27;;;;;;;9.93;5.88;;;25.60;42.30;;;;;;6100922;28;80825;-58
2024/03/03 12:45:28;;;;;;;11.82;6.28;;;25.60;42.70;;;;;;6105676;28;81338;-58
2024/03/03 12:48:29;;;;;;;7.55;5.65;;;25.60;43.20;;;;;;6093179;28;81655;-58
2024/03/03 12:51:30;;;;;;;9.13;5.38;;;25.70;43.40;;;;;;6103792;28;80884;-51
2024/03/03 12:54:30;;;;;;;8.95;5.68;;;25.70;43.20;;;;;;6094641;28;80599;-59
2024/03/03 12:57:31;;;;;;;6.35;4.65;;;25.60;42.00;;;;;;6100067;28;81616;-59
2024/03/03 13:00:31;;;;;;;7.35;5.35;;;25.70;41.90;;;;;;6100087;28;81471;-61
2024/03/03 13:03:32;;;;;;;8.95;5.53;;;25.70;41.40;;;;;;6093123;28;80365;-59
2024/03/03 13:06:32;;;;;;;7.93;4.97;;;25.80;41.30;;;;;;6100984;28;80998;-58
2024/03/03 13:09:33;;;;;;;6.70;4.70;;;25.80;40.70;;;;;;6095816;28;81198;-59
2024/03/03 13:12:33;;;;;;;7.53;4.65;;;25.80;40.90;;;;;;6092063;28;81501;-59
2024/03/03 13:15:34;;;;;;;7.90;4.80;;;25.90;41.90;;;;;;6100569;28;80496;-60
2024/03/03 13:18:35;;;;;;;8.32;4.93;;;25.90;41.20;;;;;;6087770;28;81400;-58
2024/03/03 13:21:36;;;;;;;7.05;5.53;;;25.90;41.10;;;;;;6089579;28;80464;-57
2024/03/03 13:24:37;;;;;;;5.05;4.50;;;25.90;41.50;;;;;;6077296;28;81692;-58
2024/03/03 13:27:37;;;;;;;8.77;5.03;;;25.80;41.60;;;;;;6087286;28;81087;-58
2024/03/03 13:30:38;;;;;;;7.82;5.68;;;25.80;41.40;;;;;;6084853;28;82021;-55
2024/03/03 13:33:39;;;;;;;9.30;5.80;;;25.70;41.50;;;;;;6083565;28;81852;-57
2024/03/03 13:36:40;;;;;;;7.60;5.30;;;25.70;41.30;;;;;;6082425;28;81298;-58
2024/03/03 13:39:40;;;;;;;7.20;5.30;;;25.70;41.70;;;;;;6082807;28;81689;-54
2024/03/03 13:42:41;;;;;;;9.27;5.50;;;25.70;41.50;;;;;;6083233;28;81611;-54
2024/03/03 13:45:41;;;;;;;9.63;5.43;;;25.70;41.50;;;;;;6085155;28;82408;-58
2024/03/03 13:48:42;;;;;;;7.10;4.65;;;25.70;41.40;;;;;;6084392;28;81507;-53
2024/03/03 13:51:42;;;;;;;8.93;4.45;;;25.60;41.10;;;;;;6080134;28;81159;-57
2024/03/03 13:54:43;;;;;;;6.95;4.93;;;25.60;40.80;;;;;;6082046;28;81404;-60
2024/03/03 13:57:43;;;;;;;6.43;4.22;;;25.60;40.70;;;;;;6037318;28;1406913;-56
2024/03/03 14:00:44;;;;;;;7.13;4.22;;;25.60;40.90;;;;;;6100018;28;81394;-60
2024/03/03 14:03:44;;;;;;;7.97;4.25;;;25.60;40.90;;;;;;6093127;28;81358;-58
2024/03/03 14:06:45;;;;;;;9.38;4.88;;;25.60;41.00;;;;;;6095634;28;80932;-60
2024/03/03 14:09:46;;;;;;;7.03;4.97;;;25.60;41.20;;;;;;6101661;28;81185;-60
2024/03/03 14:12:46;;;;;;;5.82;4.90;;;25.60;41.30;;;;;;6100960;28;80367;-60
2024/03/03 14:15:46;;;;;;;6.05;4.28;;;25.60;41.30;;;;;;6103584;28;85961;-60
2024/03/03 14:18:47;;;;;;;6.05;4.00;;;25.60;41.30;;;;;;6091360;28;80722;-59
2024/03/03 14:21:49;;;;;;;10.40;5.63;;;25.60;41.20;;;;;;6103846;28;81209;-59
2024/03/03 14:24:50;;;;;;;6.95;3.97;;;25.60;41.30;;;;;;6104793;28;81035;-59
2024/03/03 14:27:50;;;;;;;7.15;4.35;;;25.60;42.20;;;;;;6102062;28;80623;-59
2024/03/03 14:30:51;;;;;;;5.93;4.47;;;25.60;41.70;;;;;;6103377;28;80465;-60
2024/03/03 14:33:51;;;;;;;10.30;4.18;;;25.60;41.70;;;;;;6100257;28;86497;-60
2024/03/03 14:36:52;;;;;;;6.32;4.47;;;25.60;41.70;;;;;;6103067;28;80546;-59
2024/03/03 14:39:52;;;;;;;5.57;4.60;;;25.60;41.70;;;;;;6102217;28;83205;-60
2024/03/03 14:42:53;;;;;;;6.28;3.88;;;25.60;41.50;;;;;;6102108;28;80843;-65
2024/03/03 14:45:53;;;;;;;6.70;4.28;;;25.60;41.70;;;;;;6104799;28;80131;-60
2024/03/03 14:48:54;;;;;;;8.93;4.45;;;25.50;41.70;;;;;;6090795;28;80819;-60
2024/03/03 14:51:54;;;;;;;6.63;4.50;;;25.50;41.20;;;;;;6102766;28;80383;-61
2024/03/03 14:54:55;;;;;;;9.10;4.30;;;25.50;41.60;;;;;;6101591;28;80550;-60
2024/03/03 14:57:55;;;;;;;12.13;4.65;;;25.50;41.80;;;;;;6101044;28;81088;-62
2024/03/03 15:00:56;;;;;;;5.63;4.00;;;25.50;41.90;;;;;;6102154;28;80667;-59
2024/03/03 15:03:56;;;;;;;7.57;4.55;;;25.50;41.40;;;;;;6097749;28;81212;-60
2024/03/03 15:06:56;;;;;;;5.72;4.10;;;25.50;41.90;;;;;;6101822;28;80757;-61
2024/03/03 15:09:59;;;;;;;5.43;4.28;;;25.50;41.40;;;;;;6103357;28;80795;-60
2024/03/03 15:13:04;;;;;;;9.60;4.63;;;25.40;42.10;;;;;;6101140;28;84626;-59
2024/03/03 15:16:05;;;;;;;8.77;4.72;;;25.30;40.90;;;;;;6096087;28;80906;-59
2024/03/03 15:19:05;;;;;;;8.85;4.90;;;25.30;40.70;;;;;;6093215;28;80489;-60
2024/03/03 15:22:06;;;;;;;6.53;4.57;;;25.20;40.30;;;;;;6100954;28;80555;-59